Terminal Aerodrome Forecast
Issued by NWS Jackson, MS

Home | Current Version | Previous Version | Text Only | Print | Product List | Glossary On
Versions: 1 2 3 4 5 6 7 8 9 10 11 12 13 14 15 16 17
000
FTUS44 KJAN 030500
TAFJAN
TAF
KJAN 030539Z 0306/0406 02003KT 1/4SM -DZ FG OVC001
     FM031400 17005KT 1/2SM FG OVC003
     FM031600 17009KT 4SM BR OVC006
     FM032000 17008KT 6SM BR OVC008
     FM032300 15005KT 4SM BR OVC003=

USA.gov is the U.S. government's official web portal to all federal, state and local government web resources and services.